Time;durP1;ratioP1;P1;durP2;ratioP2;P2;SDS_P1;SDS_P2;PMS_P1;PMS_P2;Temp;Humidity;BMP_temperature;BMP_pressure;BME280_temperature;BME280_humidity;BME280_pressure;Samples;Min_cycle;Max_cycle;Signal;HPM_P1;HPM_P2
2022/04/06 00:00:21;;;;;;;30.40;18.38;;;;;;;;;;5018639;28;20034;-86
2022/04/06 00:02:47;;;;;;;28.00;17.27;;;;;;;;;;5001109;28;20049;-86
2022/04/06 00:05:13;;;;;;;31.77;18.17;;;;;;;;;;5001444;28;20021;-85
2022/04/06 00:07:40;;;;;;;31.13;18.67;;;;;;;;;;5001705;28;20474;-85
2022/04/06 00:10:07;;;;;;;32.15;18.63;;;;;;;;;;5000658;28;20481;-86
2022/04/06 00:12:34;;;;;;;32.47;19.25;;;;;;;;;;5001505;28;20453;-85
2022/04/06 00:15:00;;;;;;;32.33;18.80;;;;;;;;;;5018591;28;20506;-85
2022/04/06 00:17:26;;;;;;;32.25;18.10;;;;;;;;;;5005359;28;20049;-85
2022/04/06 00:19:52;;;;;;;26.98;17.15;;;;;;;;;;5018769;28;20076;-87
2022/04/06 00:22:18;;;;;;;29.25;18.80;;;;;;;;;;5001501;28;20025;-85
2022/04/06 00:24:44;;;;;;;31.88;18.40;;;;;;;;;;5031107;28;20033;-84
2022/04/06 00:27:10;;;;;;;30.15;18.10;;;;;;;;;;5023799;28;20054;-84
2022/04/06 00:29:36;;;;;;;30.52;18.65;;;;;;;;;;5018077;28;20547;-84
2022/04/06 00:32:02;;;;;;;31.38;18.27;;;;;;;;;;5018005;28;20026;-85
2022/04/06 00:37:13;;;;;;;30.90;18.95;;;;;;;;;;5018255;28;20079;-86
2022/04/06 00:39:39;;;;;;;30.55;18.85;;;;;;;;;;5000176;28;20113;-86
2022/04/06 00:42:07;;;;;;;31.58;17.88;;;;;;;;;;5018452;28;20073;-85
2022/04/06 00:44:34;;;;;;;27.27;16.80;;;;;;;;;;5018046;28;20025;-85
2022/04/06 00:47:02;;;;;;;30.35;16.27;;;;;;;;;;5016961;28;20036;-85
2022/04/06 00:49:29;;;;;;;28.42;17.45;;;;;;;;;;5018864;28;20470;-85
2022/04/06 00:51:55;;;;;;;27.02;16.40;;;;;;;;;;5001000;28;20038;-84
2022/04/06 00:54:23;;;;;;;26.42;17.08;;;;;;;;;;5000133;28;20034;-85
2022/04/06 00:56:49;;;;;;;31.80;17.98;;;;;;;;;;5000143;28;20026;-84
2022/04/06 00:59:16;;;;;;;33.38;17.25;;;;;;;;;;5000464;28;20060;-85
2022/04/06 01:01:45;;;;;;;29.05;17.25;;;;;;;;;;5000302;28;20423;-86
2022/04/06 01:04:11;;;;;;;32.50;17.52;;;;;;;;;;4999871;28;20026;-85
2022/04/06 01:06:37;;;;;;;34.60;19.25;;;;;;;;;;5016716;28;20021;-84
2022/04/06 01:09:03;;;;;;;30.95;18.15;;;;;;;;;;4999829;28;20470;-86
2022/04/06 01:11:30;;;;;;;32.03;18.13;;;;;;;;;;5016304;28;20065;-86
2022/04/06 01:13:56;;;;;;;29.35;16.80;;;;;;;;;;4997762;28;20113;-85
2022/04/06 01:16:22;;;;;;;30.40;18.85;;;;;;;;;;5015945;28;20072;-85
2022/04/06 01:18:48;;;;;;;30.77;16.85;;;;;;;;;;5026488;28;20018;-84
2022/04/06 01:21:15;;;;;;;26.67;17.00;;;;;;;;;;5015315;28;20026;-82
2022/04/06 01:23:44;;;;;;;29.63;17.92;;;;;;;;;;5014421;28;20397;-84
2022/04/06 01:26:11;;;;;;;28.58;16.55;;;;;;;;;;4996794;28;20393;-84
2022/04/06 01:28:37;;;;;;;27.73;16.67;;;;;;;;;;5014370;28;20022;-84
2022/04/06 01:31:04;;;;;;;32.92;19.02;;;;;;;;;;5014795;28;20449;-84
2022/04/06 01:33:30;;;;;;;36.65;18.52;;;;;;;;;;4996791;28;20229;-86
2022/04/06 01:35:56;;;;;;;32.08;19.90;;;;;;;;;;5014716;28;20025;-84
2022/04/06 01:38:23;;;;;;;29.35;18.27;;;;;;;;;;4996394;28;20033;-84
2022/04/06 01:40:49;;;;;;;32.88;18.05;;;;;;;;;;5014261;28;20108;-84
2022/04/06 01:43:15;;;;;;;34.20;18.85;;;;;;;;;;4996204;28;20054;-84
2022/04/06 01:45:41;;;;;;;32.70;18.50;;;;;;;;;;5014572;28;20433;-86
2022/04/06 01:48:07;;;;;;;32.78;18.55;;;;;;;;;;5014006;28;20018;-86
2022/04/06 01:53:18;;;;;;;35.15;19.58;;;;;;;;;;5013868;28;20129;-86
2022/04/06 01:55:44;;;;;;;38.00;20.38;;;;;;;;;;5013409;28;20083;-86
2022/04/06 01:58:10;;;;;;;37.67;19.08;;;;;;;;;;5012868;28;20022;-84
2022/04/06 02:00:37;;;;;;;35.80;20.48;;;;;;;;;;5013676;28;20037;-84
2022/04/06 02:03:04;;;;;;;37.65;19.55;;;;;;;;;;5013634;28;20102;-85
2022/04/06 02:05:33;;;;;;;33.25;18.92;;;;;;;;;;5014267;28;20017;-84
2022/04/06 02:08:00;;;;;;;32.78;18.92;;;;;;;;;;4995844;28;20018;-84
2022/04/06 02:10:27;;;;;;;36.58;19.65;;;;;;;;;;4996211;28;20063;-84
2022/04/06 02:12:55;;;;;;;31.58;16.50;;;;;;;;;;4995934;28;20092;-84
2022/04/06 02:15:22;;;;;;;33.63;17.05;;;;;;;;;;5013092;23;20358;-87
2022/04/06 02:17:48;;;;;;;29.13;16.27;;;;;;;;;;4966621;28;20037;-87
2022/04/06 02:20:14;;;;;;;27.15;14.75;;;;;;;;;;4971193;28;20427;-88
2022/04/06 02:22:41;;;;;;;27.13;15.98;;;;;;;;;;4971639;28;20030;-88
2022/04/06 02:25:07;;;;;;;27.40;16.00;;;;;;;;;;4977596;28;20057;-88
2022/04/06 02:27:33;;;;;;;26.58;15.02;;;;;;;;;;4972604;28;20037;-88
2022/04/06 02:29:59;;;;;;;35.45;18.58;;;;;;;;;;4972812;28;20481;-87
2022/04/06 02:32:25;;;;;;;32.42;19.00;;;;;;;;;;4970346;28;20377;-87
2022/04/06 02:34:51;;;;;;;37.78;19.73;;;;;;;;;;4953448;29;20030;-87
2022/04/06 02:37:17;;;;;;;39.10;21.52;;;;;;;;;;4953443;28;20031;-87
2022/04/06 02:39:43;;;;;;;33.20;18.23;;;;;;;;;;4955041;28;20074;-88
2022/04/06 02:42:09;;;;;;;32.42;18.05;;;;;;;;;;4972102;28;20035;-86
2022/04/06 02:44:35;;;;;;;31.10;17.08;;;;;;;;;;4972742;28;20034;-85
2022/04/06 02:47:01;;;;;;;32.90;16.88;;;;;;;;;;4972560;28;20027;-87
2022/04/06 02:49:27;;;;;;;36.25;19.67;;;;;;;;;;4972173;28;20019;-87
2022/04/06 02:51:53;;;;;;;31.58;16.83;;;;;;;;;;4972485;28;20078;-88
2022/04/06 02:54:20;;;;;;;33.88;19.02;;;;;;;;;;4972137;28;20023;-87
2022/04/06 02:56:46;;;;;;;39.65;18.15;;;;;;;;;;4971823;28;20038;-86
2022/04/06 02:59:12;;;;;;;39.05;19.52;;;;;;;;;;4954943;28;20034;-86
2022/04/06 03:01:38;;;;;;;35.92;19.55;;;;;;;;;;4972210;28;20495;-86
2022/04/06 03:04:04;;;;;;;34.92;19.23;;;;;;;;;;4972172;28;20114;-87
2022/04/06 03:06:30;;;;;;;38.72;21.08;;;;;;;;;;4971734;28;20037;-86
2022/04/06 03:08:56;;;;;;;41.38;20.05;;;;;;;;;;4954852;28;20027;-88
2022/04/06 03:11:22;;;;;;;36.58;20.02;;;;;;;;;;4954769;28;20490;-87
2022/04/06 03:13:50;;;;;;;41.92;20.65;;;;;;;;;;4955229;28;20026;-86
2022/04/06 03:16:16;;;;;;;35.20;19.40;;;;;;;;;;4972157;28;20066;-87
2022/04/06 03:18:42;;;;;;;35.60;19.40;;;;;;;;;;4972234;28;20031;-88
2022/04/06 03:21:08;;;;;;;29.95;17.63;;;;;;;;;;4971154;28;20026;-87
2022/04/06 03:23:34;;;;;;;34.97;18.42;;;;;;;;;;4972256;28;20030;-87
2022/04/06 03:26:00;;;;;;;34.85;20.00;;;;;;;;;;4972456;28;20104;-87
2022/04/06 03:28:26;;;;;;;34.88;20.40;;;;;;;;;;4955157;28;20111;-87
2022/04/06 03:30:52;;;;;;;40.25;21.05;;;;;;;;;;4974480;28;20027;-87
2022/04/06 03:33:18;;;;;;;46.15;21.67;;;;;;;;;;4958264;28;20019;-87
2022/04/06 03:35:44;;;;;;;38.45;20.00;;;;;;;;;;4975704;28;20506;-86
2022/04/06 03:38:10;;;;;;;38.13;21.52;;;;;;;;;;4976139;28;20033;-87
2022/04/06 03:40:36;;;;;;;35.47;18.83;;;;;;;;;;4975580;28;20023;-87
2022/04/06 03:43:02;;;;;;;37.60;20.63;;;;;;;;;;4958309;28;20023;-87
2022/04/06 03:45:28;;;;;;;33.65;18.55;;;;;;;;;;4975675;28;20023;-87
2022/04/06 03:47:54;;;;;;;34.15;19.30;;;;;;;;;;4975289;28;20101;-86
2022/04/06 03:50:20;;;;;;;35.10;19.13;;;;;;;;;;4975299;28;20031;-86
2022/04/06 03:52:46;;;;;;;31.13;18.33;;;;;;;;;;4975161;28;20031;-86
2022/04/06 03:55:12;;;;;;;35.58;19.05;;;;;;;;;;4957729;28;20027;-86
2022/04/06 03:57:39;;;;;;;37.03;17.45;;;;;;;;;;4978407;28;20022;-87
2022/04/06 04:00:05;;;;;;;33.78;18.27;;;;;;;;;;4957719;28;20114;-87
2022/04/06 04:02:32;;;;;;;34.50;18.08;;;;;;;;;;4939424;29;20085;-87
2022/04/06 04:04:58;;;;;;;36.70;19.10;;;;;;;;;;4955996;28;20034;-86
2022/04/06 04:07:24;;;;;;;34.65;19.40;;;;;;;;;;4955783;29;20470;-86
2022/04/06 04:09:50;;;;;;;35.15;19.85;;;;;;;;;;4938769;29;20512;-87
2022/04/06 04:12:17;;;;;;;36.17;20.25;;;;;;;;;;4955579;28;20246;-86
2022/04/06 04:14:43;;;;;;;35.63;19.40;;;;;;;;;;4938855;28;20027;-86
2022/04/06 04:17:09;;;;;;;32.17;18.75;;;;;;;;;;4974580;28;20042;-86
2022/04/06 04:19:35;;;;;;;40.42;19.92;;;;;;;;;;4957454;28;20027;-86
2022/04/06 04:22:02;;;;;;;41.08;20.20;;;;;;;;;;4974954;28;20027;-86
2022/04/06 04:24:28;;;;;;;36.50;20.60;;;;;;;;;;4957574;28;20027;-86
2022/04/06 04:26:54;;;;;;;34.05;19.10;;;;;;;;;;4974705;28;20545;-86
2022/04/06 04:29:20;;;;;;;34.55;18.65;;;;;;;;;;4974768;28;20114;-87
2022/04/06 04:31:47;;;;;;;37.17;20.88;;;;;;;;;;4974078;28;20026;-87
2022/04/06 04:34:13;;;;;;;36.63;20.83;;;;;;;;;;4974769;28;20026;-87
2022/04/06 04:36:39;;;;;;;39.33;20.05;;;;;;;;;;4957583;28;20483;-87
2022/04/06 04:39:05;;;;;;;37.13;19.80;;;;;;;;;;4974784;28;20088;-86
2022/04/06 04:41:31;;;;;;;32.13;18.70;;;;;;;;;;4974322;28;20081;-87
2022/04/06 04:43:57;;;;;;;35.22;20.02;;;;;;;;;;4974809;28;20399;-86
2022/04/06 04:46:24;;;;;;;38.58;20.00;;;;;;;;;;4956943;28;20030;-87
2022/04/06 04:48:50;;;;;;;36.85;20.42;;;;;;;;;;4974824;28;20054;-87
2022/04/06 04:51:16;;;;;;;33.63;18.73;;;;;;;;;;4956866;28;20027;-86
2022/04/06 04:53:42;;;;;;;35.72;20.38;;;;;;;;;;4974412;28;20026;-86
2022/04/06 04:56:08;;;;;;;36.70;20.95;;;;;;;;;;4974154;28;20118;-86
2022/04/06 04:58:34;;;;;;;34.60;19.35;;;;;;;;;;4974948;28;20031;-86
2022/04/06 05:01:00;;;;;;;35.80;18.75;;;;;;;;;;4974422;28;20031;-87
2022/04/06 05:03:26;;;;;;;34.47;18.58;;;;;;;;;;4974653;28;20041;-88
2022/04/06 05:05:53;;;;;;;31.30;18.65;;;;;;;;;;4974233;28;20019;-87
2022/04/06 05:08:23;;;;;;;32.63;18.38;;;;;;;;;;4957043;28;20505;-86
2022/04/06 05:10:49;;;;;;;32.60;18.23;;;;;;;;;;4974508;28;20081;-87
2022/04/06 05:13:17;;;;;;;34.55;18.58;;;;;;;;;;4957224;28;20019;-86
2022/04/06 05:15:43;;;;;;;30.60;17.85;;;;;;;;;;4957460;28;20070;-86
2022/04/06 05:18:09;;;;;;;31.52;16.88;;;;;;;;;;4974546;28;20099;-86
2022/04/06 05:20:35;;;;;;;31.77;18.58;;;;;;;;;;4956736;28;20023;-85
2022/04/06 05:23:01;;;;;;;30.58;17.23;;;;;;;;;;4974296;28;20018;-86
2022/04/06 05:25:27;;;;;;;33.25;18.98;;;;;;;;;;4956386;28;20105;-87
2022/04/06 05:27:54;;;;;;;35.72;19.15;;;;;;;;;;4957835;28;20023;-86
2022/04/06 05:30:21;;;;;;;33.10;18.13;;;;;;;;;;4974263;28;20037;-86
2022/04/06 05:32:49;;;;;;;33.60;17.75;;;;;;;;;;4957469;28;20082;-86
2022/04/06 05:35:15;;;;;;;35.15;20.13;;;;;;;;;;4957570;28;20027;-86
2022/04/06 05:37:42;;;;;;;35.88;17.95;;;;;;;;;;4977762;28;20046;-86
2022/04/06 05:40:08;;;;;;;31.17;19.42;;;;;;;;;;4979335;28;20082;-86
2022/04/06 05:42:34;;;;;;;29.17;17.92;;;;;;;;;;4979065;28;20062;-87
2022/04/06 05:45:00;;;;;;;26.90;16.80;;;;;;;;;;4969678;28;20022;-87
2022/04/06 05:47:26;;;;;;;31.38;17.40;;;;;;;;;;4967570;28;20019;-87
2022/04/06 05:49:53;;;;;;;29.98;17.80;;;;;;;;;;4952305;28;20031;-87
2022/04/06 05:52:19;;;;;;;30.38;17.85;;;;;;;;;;4986784;28;20066;-87
2022/04/06 05:54:45;;;;;;;29.02;16.48;;;;;;;;;;4988922;28;20133;-87
2022/04/06 05:57:11;;;;;;;26.25;14.57;;;;;;;;;;4974395;28;20616;-86
2022/04/06 05:59:37;;;;;;;26.77;15.38;;;;;;;;;;4973714;28;20045;-87
2022/04/06 06:02:06;;;;;;;21.50;14.07;;;;;;;;;;4956164;28;20034;-87
2022/04/06 06:04:33;;;;;;;22.10;13.15;;;;;;;;;;4973848;28;20503;-86
2022/04/06 06:06:59;;;;;;;25.83;14.52;;;;;;;;;;4972815;28;20038;-86
2022/04/06 06:09:28;;;;;;;28.65;16.08;;;;;;;;;;4955464;28;20043;-88
2022/04/06 06:12:15;;;;;;;23.23;14.45;;;;;;;;;;4973631;28;20113;-88
2022/04/06 06:14:41;;;;;;;28.63;15.30;;;;;;;;;;4939990;29;20556;-87
2022/04/06 06:17:10;;;;;;;24.23;15.20;;;;;;;;;;4960889;28;20073;-88
2022/04/06 06:19:36;;;;;;;30.02;15.32;;;;;;;;;;4977333;28;20023;-87
2022/04/06 06:22:02;;;;;;;26.40;15.10;;;;;;;;;;4993674;28;20034;-87
2022/04/06 06:24:28;;;;;;;24.95;15.85;;;;;;;;;;4991217;28;20031;-87
2022/04/06 06:26:54;;;;;;;27.70;15.75;;;;;;;;;;4976816;28;20035;-88
2022/04/06 06:29:21;;;;;;;27.90;15.88;;;;;;;;;;4973223;28;20027;-88
2022/04/06 06:31:47;;;;;;;29.83;17.05;;;;;;;;;;4973383;28;20484;-87
2022/04/06 06:34:13;;;;;;;24.55;17.20;;;;;;;;;;4973204;28;20034;-88
2022/04/06 06:36:39;;;;;;;25.48;15.30;;;;;;;;;;4955618;28;20042;-87
2022/04/06 06:39:05;;;;;;;24.80;14.18;;;;;;;;;;4955500;28;20027;-88
2022/04/06 06:41:31;;;;;;;23.13;14.20;;;;;;;;;;4955122;28;20050;-88
2022/04/06 06:43:58;;;;;;;23.98;13.70;;;;;;;;;;4972802;28;20042;-87
2022/04/06 06:46:24;;;;;;;24.60;13.98;;;;;;;;;;4955936;28;20195;-86
2022/04/06 06:48:51;;;;;;;21.38;13.07;;;;;;;;;;4955447;28;20042;-87
2022/04/06 06:51:18;;;;;;;18.30;12.73;;;;;;;;;;4955385;28;20019;-87
2022/04/06 06:53:44;;;;;;;22.65;13.05;;;;;;;;;;4955747;28;20026;-86
2022/04/06 06:56:10;;;;;;;19.98;12.70;;;;;;;;;;4955819;28;20035;-86
2022/04/06 06:58:36;;;;;;;19.95;12.93;;;;;;;;;;4973269;28;20031;-87
2022/04/06 07:01:02;;;;;;;22.45;12.35;;;;;;;;;;4955607;28;20449;-86
2022/04/06 07:03:28;;;;;;;18.70;11.50;;;;;;;;;;4972656;28;20482;-86
2022/04/06 07:05:54;;;;;;;19.15;12.38;;;;;;;;;;4956967;28;20125;-85
2022/04/06 07:08:20;;;;;;;25.48;12.55;;;;;;;;;;4958637;28;20280;-86
2022/04/06 07:10:47;;;;;;;19.40;11.48;;;;;;;;;;4976165;28;20360;-85
2022/04/06 07:13:16;;;;;;;21.15;12.27;;;;;;;;;;4974934;28;20527;-89
2022/04/06 07:15:42;;;;;;;18.95;11.45;;;;;;;;;;4958417;28;20034;-91
2022/04/06 07:18:09;;;;;;;18.50;11.93;;;;;;;;;;4958758;28;20034;-90
2022/04/06 07:20:36;;;;;;;15.55;10.85;;;;;;;;;;4957920;28;20034;-90
2022/04/06 07:23:02;;;;;;;16.58;9.63;;;;;;;;;;4976035;28;20042;-88
2022/04/06 07:25:28;;;;;;;21.02;9.50;;;;;;;;;;4958223;28;20480;-88
2022/04/06 07:27:54;;;;;;;14.43;7.63;;;;;;;;;;4978470;28;20078;-88
2022/04/06 07:30:20;;;;;;;13.57;7.00;;;;;;;;;;4975424;28;20231;-88
2022/04/06 07:32:46;;;;;;;9.98;6.95;;;;;;;;;;4975344;28;20098;-88
2022/04/06 07:35:12;;;;;;;10.75;5.95;;;;;;;;;;4958240;28;20025;-88
2022/04/06 07:37:43;;;;;;;13.93;7.00;;;;;;;;;;4977686;28;20094;-87
2022/04/06 07:40:10;;;;;;;14.63;7.40;;;;;;;;;;4952783;28;20054;-87
2022/04/06 07:42:39;;;;;;;11.25;6.05;;;;;;;;;;4975683;28;20031;-88
2022/04/06 07:45:07;;;;;;;8.77;5.97;;;;;;;;;;4957293;28;20498;-88
2022/04/06 07:47:35;;;;;;;10.27;6.10;;;;;;;;;;4969264;28;20126;-89
2022/04/06 07:50:03;;;;;;;8.35;5.57;;;;;;;;;;4975628;28;20023;-89
2022/04/06 07:52:29;;;;;;;10.10;5.57;;;;;;;;;;4958374;28;20030;-88
2022/04/06 07:54:55;;;;;;;12.73;5.97;;;;;;;;;;4957828;28;20078;-89
2022/04/06 07:57:22;;;;;;;14.20;6.35;;;;;;;;;;4953784;28;20118;-87
2022/04/06 07:59:49;;;;;;;14.57;6.22;;;;;;;;;;4976199;28;20462;-88
2022/04/06 08:02:15;;;;;;;7.97;5.20;;;;;;;;;;4975218;28;20383;-87
2022/04/06 08:04:41;;;;;;;11.80;6.30;;;;;;;;;;4957664;28;20058;-89
2022/04/06 08:07:09;;;;;;;8.70;5.00;;;;;;;;;;4957479;28;20445;-88
2022/04/06 08:09:38;;;;;;;11.23;4.90;;;;;;;;;;4957190;28;20090;-87
2022/04/06 08:12:04;;;;;;;9.18;4.47;;;;;;;;;;4972837;28;20531;-88
2022/04/06 08:14:30;;;;;;;6.75;4.78;;;;;;;;;;4957393;28;20475;-89
2022/04/06 08:16:57;;;;;;;11.15;5.53;;;;;;;;;;5013946;23;20048;-88
2022/04/06 08:19:24;;;;;;;8.70;5.28;;;;;;;;;;5001114;28;20458;-85
2022/04/06 08:21:50;;;;;;;9.05;5.15;;;;;;;;;;5016594;28;20026;-86
2022/04/06 08:24:16;;;;;;;10.18;5.47;;;;;;;;;;5017872;28;20445;-85
2022/04/06 08:26:42;;;;;;;11.00;5.80;;;;;;;;;;5016746;28;20129;-85
2022/04/06 08:29:08;;;;;;;14.25;5.68;;;;;;;;;;5000951;28;20156;-85
2022/04/06 08:31:34;;;;;;;9.38;5.55;;;;;;;;;;5002087;28;20029;-86
2022/04/06 08:34:01;;;;;;;12.23;5.93;;;;;;;;;;5020468;28;20109;-86
2022/04/06 08:36:27;;;;;;;11.02;5.85;;;;;;;;;;5002371;28;20485;-87
2022/04/06 08:38:53;;;;;;;10.45;6.15;;;;;;;;;;5019901;28;20029;-88
2022/04/06 08:41:23;;;;;;;12.77;5.45;;;;;;;;;;5019523;28;20044;-86
2022/04/06 08:43:49;;;;;;;12.52;5.88;;;;;;;;;;5020418;28;20017;-86
2022/04/06 08:46:16;;;;;;;12.32;5.43;;;;;;;;;;5002712;28;20387;-87
2022/04/06 08:48:43;;;;;;;15.13;6.13;;;;;;;;;;5002075;28;20026;-86
2022/04/06 08:51:09;;;;;;;9.25;5.40;;;;;;;;;;5002727;28;20022;-86
2022/04/06 08:53:39;;;;;;;9.05;5.28;;;;;;;;;;5020422;28;20026;-88
2022/04/06 08:56:07;;;;;;;11.43;5.72;;;;;;;;;;5002740;28;20080;-88
2022/04/06 08:58:33;;;;;;;12.02;5.95;;;;;;;;;;5020695;28;20034;-87
2022/04/06 09:00:59;;;;;;;11.15;5.60;;;;;;;;;;5020225;28;20030;-86
2022/04/06 09:03:25;;;;;;;11.85;5.63;;;;;;;;;;5002314;28;20126;-87
2022/04/06 09:06:04;;;;;;;9.45;5.85;;;;;;;;;;5019334;28;20029;-87
2022/04/06 09:08:34;;;;;;;17.85;6.53;;;;;;;;;;5002673;28;20026;-87
2022/04/06 09:11:06;;;;;;;11.27;6.30;;;;;;;;;;5020509;28;20425;-85
2022/04/06 09:13:32;;;;;;;15.63;6.20;;;;;;;;;;5020735;28;20022;-86
2022/04/06 09:16:02;;;;;;;11.60;6.03;;;;;;;;;;5002951;28;20391;-85
2022/04/06 09:18:34;;;;;;;13.07;6.03;;;;;;;;;;5021113;28;20021;-88
2022/04/06 09:21:01;;;;;;;11.57;6.00;;;;;;;;;;5019253;28;20072;-86
2022/04/06 09:23:29;;;;;;;12.85;6.10;;;;;;;;;;5018539;28;20018;-86
2022/04/06 09:25:56;;;;;;;7.65;4.93;;;;;;;;;;5004462;28;20032;-86
2022/04/06 09:28:22;;;;;;;18.15;5.60;;;;;;;;;;5019888;28;20101;-88
2022/04/06 09:30:48;;;;;;;11.18;5.88;;;;;;;;;;5020301;28;20536;-85
2022/04/06 09:33:19;;;;;;;11.10;5.60;;;;;;;;;;5020255;28;20044;-87
2022/04/06 09:35:45;;;;;;;10.30;4.95;;;;;;;;;;5002725;28;20068;-86
2022/04/06 09:38:25;;;;;;;9.70;4.93;;;;;;;;;;5002690;28;20125;-86
2022/04/06 09:41:01;;;;;;;12.10;5.10;;;;;;;;;;5020071;28;20041;-85
2022/04/06 09:43:29;;;;;;;13.98;5.32;;;;;;;;;;5020357;28;20029;-86
2022/04/06 09:48:53;;;;;;;11.25;5.20;;;;;;;;;;5020900;28;20068;-87
2022/04/06 09:51:20;;;;;;;16.08;6.22;;;;;;;;;;5021012;28;20018;-88
2022/04/06 09:53:48;;;;;;;17.77;5.97;;;;;;;;;;5002454;28;20418;-86
2022/04/06 09:56:16;;;;;;;12.98;5.07;;;;;;;;;;5020714;28;20026;-88
2022/04/06 09:58:42;;;;;;;6.60;4.82;;;;;;;;;;5020249;28;20041;-86
2022/04/06 10:01:08;;;;;;;14.23;5.82;;;;;;;;;;5020259;28;20394;-86
2022/04/06 10:03:38;;;;;;;11.82;5.70;;;;;;;;;;5002760;28;20036;-87
2022/04/06 10:06:04;;;;;;;9.90;5.20;;;;;;;;;;5002096;28;20433;-89
2022/04/06 10:08:32;;;;;;;8.70;4.25;;;;;;;;;;5020573;28;20044;-87
2022/04/06 10:10:59;;;;;;;10.27;4.90;;;;;;;;;;5020856;28;20022;-87
2022/04/06 10:13:26;;;;;;;10.55;4.53;;;;;;;;;;5020944;28;20093;-88
2022/04/06 10:15:52;;;;;;;9.27;3.80;;;;;;;;;;5002260;28;20121;-88
2022/04/06 10:18:19;;;;;;;11.05;4.70;;;;;;;;;;5020633;28;20466;-88
2022/04/06 10:20:54;;;;;;;9.93;4.05;;;;;;;;;;5019984;28;20022;-87
2022/04/06 10:23:27;;;;;;;8.80;4.35;;;;;;;;;;5020551;28;20458;-87
2022/04/06 10:25:55;;;;;;;12.93;4.47;;;;;;;;;;5020383;28;20034;-87
2022/04/06 10:28:22;;;;;;;7.78;4.32;;;;;;;;;;5019437;28;20081;-86
2022/04/06 10:31:07;;;;;;;8.05;3.95;;;;;;;;;;5020173;28;20028;-88
2022/04/06 10:33:34;;;;;;;6.75;4.18;;;;;;;;;;5021378;28;20018;-87
2022/04/06 10:36:19;;;;;;;12.68;4.00;;;;;;;;;;5019844;28;20386;-87
2022/04/06 10:39:04;;;;;;;9.95;4.20;;;;;;;;;;5022294;28;20046;-88
2022/04/06 10:41:30;;;;;;;13.05;4.35;;;;;;;;;;5025336;28;20022;-87
2022/04/06 10:43:56;;;;;;;13.93;5.50;;;;;;;;;;5025923;28;20052;-88
2022/04/06 10:46:34;;;;;;;9.10;4.93;;;;;;;;;;5023757;28;20022;-88
2022/04/06 10:49:00;;;;;;;10.90;5.15;;;;;;;;;;5026098;28;20080;-85
2022/04/06 10:51:27;;;;;;;8.70;4.57;;;;;;;;;;5025777;28;20026;-86
2022/04/06 10:53:53;;;;;;;7.15;4.60;;;;;;;;;;5025546;28;20052;-89
2022/04/06 10:56:19;;;;;;;10.93;5.22;;;;;;;;;;5023324;28;20125;-88
2022/04/06 10:58:58;;;;;;;9.45;4.57;;;;;;;;;;5023840;28;20030;-88
2022/04/06 11:01:29;;;;;;;10.70;4.13;;;;;;;;;;5023258;28;20036;-86
2022/04/06 11:04:01;;;;;;;8.77;3.78;;;;;;;;;;5025249;28;20111;-88
2022/04/06 11:06:44;;;;;;;8.52;4.13;;;;;;;;;;5022852;28;20029;-88
2022/04/06 11:12:24;;;;;;;8.82;4.03;;;;;;;;;;5024917;28;20036;-89
2022/04/06 11:14:51;;;;;;;8.18;3.92;;;;;;;;;;5024453;28;20026;-87
2022/04/06 11:17:34;;;;;;;9.30;4.03;;;;;;;;;;5025073;28;20478;-89
2022/04/06 11:20:01;;;;;;;11.88;4.25;;;;;;;;;;5025258;28;20022;-88
2022/04/06 11:22:27;;;;;;;11.75;4.63;;;;;;;;;;5008764;28;20093;-89
2022/04/06 11:24:56;;;;;;;8.35;3.78;;;;;;;;;;5025167;28;20026;-87
2022/04/06 11:27:41;;;;;;;7.80;3.60;;;;;;;;;;5025877;28;20026;-90
2022/04/06 11:30:13;;;;;;;8.70;3.45;;;;;;;;;;5026386;28;20030;-90
2022/04/06 11:32:39;;;;;;;7.95;3.45;;;;;;;;;;5009457;28;20041;-88
2022/04/06 11:35:09;;;;;;;8.98;3.15;;;;;;;;;;5009709;28;20050;-89
2022/04/06 11:37:40;;;;;;;5.03;2.85;;;;;;;;;;5008610;28;20030;-89
2022/04/06 11:40:06;;;;;;;;;;;;;;;;;;5026591;28;20099;-88
2022/04/06 11:42:32;;;;;;;6.10;3.13;;;;;;;;;;5026355;28;19905;-88
2022/04/06 11:44:58;;;;;;;9.00;3.13;;;;;;;;;;5008388;28;20037;-87
2022/04/06 11:47:30;;;;;;;9.57;3.38;;;;;;;;;;5026243;28;20026;-89
2022/04/06 11:49:57;;;;;;;7.30;2.65;;;;;;;;;;5007867;28;20029;-88
2022/04/06 11:52:23;;;;;;;6.30;2.60;;;;;;;;;;5018495;28;20080;-85
2022/04/06 11:54:52;;;;;;;7.75;2.53;;;;;;;;;;5001357;28;20025;-86
2022/04/06 11:57:18;;;;;;;10.05;3.00;;;;;;;;;;5018681;28;20513;-86
2022/04/06 11:59:54;;;;;;;8.85;2.80;;;;;;;;;;5001304;28;20029;-88
2022/04/06 12:02:20;;;;;;;6.10;2.67;;;;;;;;;;5000589;28;20025;-88
2022/04/06 12:04:49;;;;;;;7.40;2.42;;;;;;;;;;5018310;28;20030;-87
2022/04/06 12:07:21;;;;;;;5.00;2.80;;;;;;;;;;5000596;28;20025;-85
2022/04/06 12:09:48;;;;;;;6.97;2.38;;;;;;;;;;5000570;28;20034;-87
2022/04/06 12:12:14;;;;;;;16.58;3.67;;;;;;;;;;5018414;28;20482;-87
2022/04/06 12:14:41;;;;;;;6.10;2.42;;;;;;;;;;5000210;28;20026;-86
2022/04/06 12:17:07;;;;;;;8.52;2.30;;;;;;;;;;5018703;28;20033;-88
2022/04/06 12:19:36;;;;;;;5.13;1.77;;;;;;;;;;5018163;28;20078;-87
2022/04/06 12:22:07;;;;;;;7.80;1.98;;;;;;;;;;5017274;28;20030;-85
2022/04/06 12:24:33;;;;;;;;;;;;;;;;;;5019213;28;20116;-87
2022/04/06 12:26:59;;;;;;;6.07;1.85;;;;;;;;;;5002020;28;19965;-86
2022/04/06 12:29:25;;;;;;;3.30;1.65;;;;;;;;;;5018420;28;20025;-87
2022/04/06 12:31:53;;;;;;;7.18;2.00;;;;;;;;;;5018288;28;20060;-87
2022/04/06 12:34:29;;;;;;;4.53;1.70;;;;;;;;;;5018673;28;20018;-86
2022/04/06 12:36:55;;;;;;;2.60;1.33;;;;;;;;;;5018774;28;20413;-87
2022/04/06 12:39:21;;;;;;;3.67;1.52;;;;;;;;;;4999984;28;20393;-87
2022/04/06 12:41:55;;;;;;;2.50;1.50;;;;;;;;;;5019209;28;20434;-86
2022/04/06 12:44:21;;;;;;;3.28;1.67;;;;;;;;;;5019255;28;20037;-87
2022/04/06 12:46:48;;;;;;;3.55;1.42;;;;;;;;;;5018689;28;20121;-89
2022/04/06 12:49:20;;;;;;;8.77;1.98;;;;;;;;;;5020942;28;20029;-86
2022/04/06 12:51:47;;;;;;;5.03;1.88;;;;;;;;;;5021326;28;20474;-85
2022/04/06 12:54:13;;;;;;;6.78;1.85;;;;;;;;;;5020190;28;20022;-86
2022/04/06 12:56:39;;;;;;;6.00;2.20;;;;;;;;;;5018597;28;20061;-87
2022/04/06 12:59:09;;;;;;;5.70;1.95;;;;;;;;;;5001163;28;20053;-86
2022/04/06 13:01:56;;;;;;;7.13;2.10;;;;;;;;;;5001594;28;20021;-86
2022/04/06 13:04:22;;;;;;;7.10;1.80;;;;;;;;;;5020141;28;20105;-86
2022/04/06 13:06:48;;;;;;;5.45;2.38;;;;;;;;;;5020079;28;20061;-87
2022/04/06 13:09:14;;;;;;;8.13;2.00;;;;;;;;;;5002778;28;20502;-87
2022/04/06 13:11:41;;;;;;;5.13;1.77;;;;;;;;;;5002333;28;20096;-88
2022/04/06 13:14:07;;;;;;;5.55;1.33;;;;;;;;;;5020539;28;20030;-86
2022/04/06 13:16:36;;;;;;;5.05;1.58;;;;;;;;;;5020544;28;20501;-85
2022/04/06 13:19:04;;;;;;;4.35;1.70;;;;;;;;;;5002185;28;20029;-88
2022/04/06 13:21:33;;;;;;;2.03;1.30;;;;;;;;;;5002145;28;20026;-87
2022/04/06 13:24:00;;;;;;;2.88;1.80;;;;;;;;;;5002393;28;20030;-85
2022/04/06 13:26:26;;;;;;;2.60;1.60;;;;;;;;;;5019926;28;20076;-87
2022/04/06 13:28:52;;;;;;;3.25;1.48;;;;;;;;;;5020115;28;20049;-87
2022/04/06 13:31:17;;;;;;;3.03;1.70;;;;;;;;;;5016818;28;20029;-87
2022/04/06 13:33:43;;;;;;;4.82;1.88;;;;;;;;;;5018063;28;20553;-85
2022/04/06 13:36:10;;;;;;;5.13;1.70;;;;;;;;;;5019901;28;20044;-86
2022/04/06 13:38:36;;;;;;;2.45;1.80;;;;;;;;;;5020045;28;20069;-88
2022/04/06 13:41:04;;;;;;;5.80;1.58;;;;;;;;;;5019783;28;20536;-87
2022/04/06 13:43:31;;;;;;;4.15;1.92;;;;;;;;;;5017634;28;20040;-88
2022/04/06 13:45:57;;;;;;;7.25;2.72;;;;;;;;;;5019242;28;20026;-87
2022/04/06 13:48:23;;;;;;;5.80;2.08;;;;;;;;;;5019023;28;20026;-89
2022/04/06 13:50:49;;;;;;;3.80;2.22;;;;;;;;;;5019058;28;20113;-87
2022/04/06 13:53:15;;;;;;;3.03;2.25;;;;;;;;;;5019629;28;20080;-88
2022/04/06 13:55:41;;;;;;;5.15;2.50;;;;;;;;;;5020154;28;20387;-87
2022/04/06 13:58:08;;;;;;;6.40;2.47;;;;;;;;;;5019323;28;20356;-88
2022/04/06 14:00:36;;;;;;;7.07;3.00;;;;;;;;;;5019901;28;20033;-87
2022/04/06 14:03:02;;;;;;;7.18;2.38;;;;;;;;;;5018065;28;20037;-86
2022/04/06 14:05:30;;;;;;;3.72;1.88;;;;;;;;;;5019801;28;20025;-87
2022/04/06 14:07:57;;;;;;;5.57;2.08;;;;;;;;;;5019235;28;20386;-88
2022/04/06 14:10:23;;;;;;;4.90;2.58;;;;;;;;;;5018717;28;20022;-88
2022/04/06 14:12:49;;;;;;;8.18;2.28;;;;;;;;;;5017780;28;20113;-88
2022/04/06 14:15:16;;;;;;;7.50;1.80;;;;;;;;;;5019546;28;20033;-86
2022/04/06 14:17:42;;;;;;;5.40;2.30;;;;;;;;;;5017519;28;20045;-85
2022/04/06 14:20:09;;;;;;;8.40;2.65;;;;;;;;;;4998702;28;20089;-83
2022/04/06 14:22:35;;;;;;;4.05;2.13;;;;;;;;;;4998531;28;20080;-84
2022/04/06 14:25:16;;;;;;;7.78;2.67;;;;;;;;;;5016370;28;20532;-83
2022/04/06 14:27:44;;;;;;;4.97;2.13;;;;;;;;;;5016035;28;20030;-85
2022/04/06 14:30:10;;;;;;;3.85;2.28;;;;;;;;;;5017142;28;20084;-86
2022/04/06 14:32:36;;;;;;;5.07;2.40;;;;;;;;;;5016399;28;20018;-86
2022/04/06 14:35:02;;;;;;;5.05;2.10;;;;;;;;;;5016899;28;20105;-86
2022/04/06 14:37:29;;;;;;;8.13;2.50;;;;;;;;;;5017100;28;20034;-84
2022/04/06 14:39:55;;;;;;;3.05;2.22;;;;;;;;;;5016825;28;20475;-85